Time;durP1;ratioP1;P1;durP2;ratioP2;P2;SDS_P1;SDS_P2;PMS_P1;PMS_P2;Temp;Humidity;BMP_temperature;BMP_pressure;BME280_temperature;BME280_humidity;BME280_pressure;Samples;Min_cycle;Max_cycle;Signal;HPM_P1;HPM_P2
2021/03/18 00:01:15;;;;;;;8.57;3.50;;;1.40;99.90;;;;;;5014334;28;20048;-85
2021/03/18 00:03:42;;;;;;;10.13;3.87;;;1.40;99.90;;;;;;5005202;28;20018;-85
2021/03/18 00:06:09;;;;;;;10.30;3.93;;;1.40;99.90;;;;;;4999578;28;20538;-85
2021/03/18 00:08:36;;;;;;;11.27;3.57;;;1.40;99.90;;;;;;5000018;28;20480;-85
2021/03/18 00:11:08;;;;;;;8.43;4.00;;;1.40;99.90;;;;;;4999719;28;20080;-85
2021/03/18 00:13:34;;;;;;;8.95;4.15;;;1.40;99.90;;;;;;5000095;28;20109;-85
2021/03/18 00:16:00;;;;;;;7.47;3.33;;;1.40;99.90;;;;;;4999281;28;20069;-86
2021/03/18 00:18:30;;;;;;;9.23;3.90;;;1.40;99.90;;;;;;4997893;28;20030;-85
2021/03/18 00:20:57;;;;;;;8.47;3.77;;;1.40;99.90;;;;;;4999643;28;20086;-85
2021/03/18 00:23:23;;;;;;;9.90;3.70;;;1.40;99.90;;;;;;4998284;28;20022;-85
2021/03/18 00:25:48;;;;;;;8.00;4.00;;;1.40;99.90;;;;;;4998970;28;20207;-85
2021/03/18 00:28:14;;;;;;;8.13;4.03;;;1.40;99.90;;;;;;4998011;28;20547;-84
2021/03/18 00:30:40;;;;;;;9.07;4.03;;;1.40;99.90;;;;;;4997984;28;20027;-84
2021/03/18 00:33:05;;;;;;;9.60;3.80;;;1.40;99.90;;;;;;4998648;28;20058;-84
2021/03/18 00:35:31;;;;;;;8.93;3.70;;;1.40;99.90;;;;;;4998334;28;20031;-85
2021/03/18 00:37:57;;;;;;;7.27;3.60;;;1.40;99.90;;;;;;4998432;28;20039;-85
2021/03/18 00:40:27;;;;;;;8.77;3.50;;;1.40;99.90;;;;;;4998838;28;20118;-84
2021/03/18 00:43:00;;;;;;;9.37;3.50;;;1.40;99.90;;;;;;4999135;28;20018;-85
2021/03/18 00:45:28;;;;;;;10.65;4.10;;;1.40;99.90;;;;;;4994989;28;20031;-85
2021/03/18 00:47:54;;;;;;;11.33;3.77;;;1.30;99.90;;;;;;4999554;28;20041;-85
2021/03/18 00:50:42;;;;;;;10.00;4.60;;;1.40;99.90;;;;;;4999785;28;20022;-85
2021/03/18 00:53:10;;;;;;;7.80;3.57;;;1.40;99.90;;;;;;4998902;28;20406;-85
2021/03/18 00:55:36;;;;;;;8.90;4.00;;;1.40;99.90;;;;;;5001781;28;20030;-85
2021/03/18 00:58:03;;;;;;;7.50;3.53;;;1.40;99.90;;;;;;5001986;28;20030;-85
2021/03/18 01:00:40;;;;;;;10.80;4.07;;;1.40;99.90;;;;;;4996902;23;20046;-84
2021/03/18 01:03:08;;;;;;;8.23;3.67;;;1.40;99.90;;;;;;4980648;28;20113;-86
2021/03/18 01:06:01;;;;;;;9.93;3.97;;;1.40;99.90;;;;;;4996017;28;20083;-87
2021/03/18 01:08:29;;;;;;;6.40;3.53;;;1.40;99.90;;;;;;5009220;28;20438;-86
2021/03/18 01:11:08;;;;;;;12.40;3.47;;;1.40;99.90;;;;;;4986686;28;20505;-87
2021/03/18 01:13:35;;;;;;;8.03;3.83;;;1.50;99.90;;;;;;4982576;28;20419;-84
2021/03/18 01:16:11;;;;;;;9.27;3.93;;;1.40;99.90;;;;;;4991645;28;20030;-84
2021/03/18 01:18:45;;;;;;;8.37;4.00;;;1.40;99.90;;;;;;4984802;28;20018;-84
2021/03/18 01:21:11;;;;;;;9.57;4.13;;;1.40;99.90;;;;;;5014868;28;20041;-84
2021/03/18 01:23:38;;;;;;;8.70;3.77;;;1.50;99.90;;;;;;5000470;28;20431;-83
2021/03/18 01:26:05;;;;;;;10.43;3.80;;;1.50;99.90;;;;;;4995202;28;20053;-83
2021/03/18 01:28:31;;;;;;;7.57;4.03;;;1.50;99.90;;;;;;4983293;28;20026;-83
2021/03/18 01:30:57;;;;;;;10.67;3.87;;;1.50;99.90;;;;;;4987041;28;20026;-83
2021/03/18 01:33:23;;;;;;;10.10;3.90;;;1.50;99.90;;;;;;4996011;28;20533;-84
2021/03/18 01:35:49;;;;;;;10.07;4.00;;;1.50;99.90;;;;;;4974509;28;20023;-86
2021/03/18 01:38:15;;;;;;;7.20;3.30;;;1.40;99.90;;;;;;5014033;28;20034;-87
2021/03/18 01:40:41;;;;;;;7.90;3.60;;;1.40;99.90;;;;;;4999665;28;20022;-86
2021/03/18 01:43:07;;;;;;;6.57;4.00;;;1.40;99.90;;;;;;4989701;28;20022;-86
2021/03/18 01:45:35;;;;;;;8.43;3.67;;;1.40;99.90;;;;;;4981200;28;20029;-86
2021/03/18 01:48:00;;;;;;;7.17;4.13;;;1.40;99.90;;;;;;5011393;28;20532;-86
2021/03/18 01:50:28;;;;;;;7.40;3.37;;;1.30;99.90;;;;;;4995966;28;20030;-86
2021/03/18 01:52:55;;;;;;;6.77;3.43;;;1.30;99.90;;;;;;4975424;28;20561;-84
2021/03/18 01:55:23;;;;;;;8.27;3.37;;;1.30;99.90;;;;;;4977298;28;20110;-83
2021/03/18 01:57:49;;;;;;;9.57;3.77;;;1.30;99.90;;;;;;4995180;28;20093;-83
2021/03/18 02:00:16;;;;;;;12.30;3.30;;;1.30;99.90;;;;;;4995211;28;20029;-83
2021/03/18 02:02:42;;;;;;;11.93;3.70;;;1.30;99.90;;;;;;4991098;28;20026;-84
2021/03/18 02:05:08;;;;;;;7.17;3.57;;;1.30;99.90;;;;;;4995715;28;20459;-83
2021/03/18 02:07:35;;;;;;;8.27;3.60;;;1.30;99.90;;;;;;5012866;28;20129;-83
2021/03/18 02:10:00;;;;;;;9.70;3.33;;;1.30;99.90;;;;;;4994960;28;20029;-83
2021/03/18 02:12:26;;;;;;;8.63;4.60;;;1.30;99.90;;;;;;4989736;28;20037;-84
2021/03/18 02:14:52;;;;;;;10.93;4.20;;;1.30;99.90;;;;;;4996131;28;20022;-83
2021/03/18 02:17:33;;;;;;;8.40;3.53;;;1.30;99.90;;;;;;5003669;28;20037;-84
2021/03/18 02:20:07;;;;;;;8.13;3.97;;;1.30;99.90;;;;;;4974174;28;20034;-83
2021/03/18 02:22:48;;;;;;;8.80;3.73;;;1.40;99.90;;;;;;4981401;28;20117;-83
2021/03/18 02:25:20;;;;;;;9.37;3.97;;;1.40;99.90;;;;;;4986325;28;20491;-83
2021/03/18 02:27:52;;;;;;;;;;;1.40;99.90;;;;;;4980841;28;20041;-83
2021/03/18 02:30:47;;;;;;;8.37;3.53;;;1.40;99.90;;;;;;4977968;28;19906;-83
2021/03/18 02:33:19;;;;;;;7.87;4.10;;;1.40;99.90;;;;;;4985450;28;20432;-84
2021/03/18 02:35:52;;;;;;;9.67;3.93;;;1.50;99.90;;;;;;5003471;28;20030;-85
2021/03/18 02:38:35;;;;;;;6.77;3.37;;;1.50;99.90;;;;;;4992776;28;20018;-85
2021/03/18 02:41:05;;;;;;;8.63;3.50;;;1.40;99.90;;;;;;4997060;28;20542;-84
2021/03/18 02:43:53;;;;;;;7.23;3.93;;;1.40;99.90;;;;;;4978035;28;20065;-84
2021/03/18 02:46:21;;;;;;;7.20;3.53;;;1.40;99.90;;;;;;4980843;28;20056;-85
2021/03/18 02:48:47;;;;;;;7.57;3.57;;;1.50;99.90;;;;;;4995249;28;20068;-85
2021/03/18 02:51:18;;;;;;;8.47;3.80;;;1.50;99.90;;;;;;4987017;28;20392;-85
2021/03/18 02:53:46;;;;;;;10.13;4.23;;;1.50;99.90;;;;;;4987418;28;20022;-84
2021/03/18 02:56:16;;;;;;;10.40;3.70;;;1.50;99.90;;;;;;4973093;28;20164;-84
2021/03/18 02:58:43;;;;;;;7.07;3.53;;;1.50;99.90;;;;;;4961597;28;20445;-84
2021/03/18 03:01:09;;;;;;;7.93;3.43;;;1.50;99.90;;;;;;4983023;28;20044;-84
2021/03/18 03:03:36;;;;;;;8.37;3.50;;;1.50;99.90;;;;;;4984314;28;20090;-85
2021/03/18 03:06:05;;;;;;;8.10;3.40;;;1.40;99.90;;;;;;4976744;28;20033;-84
2021/03/18 03:08:32;;;;;;;5.83;3.00;;;1.40;99.90;;;;;;4993966;28;20054;-85
2021/03/18 03:11:00;;;;;;;6.77;3.10;;;1.40;99.90;;;;;;4981880;28;20053;-84
2021/03/18 03:13:28;;;;;;;9.33;3.80;;;1.40;99.90;;;;;;4994801;28;20270;-84
2021/03/18 03:15:56;;;;;;;6.53;3.20;;;1.40;99.90;;;;;;5012543;28;20030;-83
2021/03/18 03:18:22;;;;;;;9.80;3.73;;;1.40;99.90;;;;;;5012330;28;20025;-85
2021/03/18 03:20:52;;;;;;;8.80;3.50;;;1.40;99.90;;;;;;4995177;28;20048;-84
2021/03/18 03:23:19;;;;;;;6.10;3.20;;;1.40;99.90;;;;;;4981257;28;20022;-85
2021/03/18 03:25:45;;;;;;;7.87;3.10;;;1.40;99.90;;;;;;4994582;28;20037;-84
2021/03/18 03:28:12;;;;;;;8.43;3.07;;;1.40;99.90;;;;;;4981121;28;20026;-84
2021/03/18 03:30:38;;;;;;;6.70;3.40;;;1.40;99.90;;;;;;4967580;28;20520;-84
2021/03/18 03:33:06;;;;;;;6.70;2.97;;;1.40;99.90;;;;;;4989854;28;20573;-85
2021/03/18 03:35:33;;;;;;;6.93;2.90;;;1.40;99.90;;;;;;4983300;28;20394;-84
2021/03/18 03:37:59;;;;;;;7.30;3.10;;;1.40;99.90;;;;;;4993199;28;20026;-85
2021/03/18 03:40:24;;;;;;;6.63;3.00;;;1.40;99.90;;;;;;4992281;28;20102;-84
2021/03/18 03:42:50;;;;;;;8.20;3.47;;;1.40;99.90;;;;;;5011931;28;20076;-85
2021/03/18 03:45:17;;;;;;;7.80;3.53;;;1.50;99.90;;;;;;4987248;28;20081;-84
2021/03/18 03:47:44;;;;;;;5.87;2.60;;;1.50;99.90;;;;;;4977359;28;20042;-85
2021/03/18 03:50:16;;;;;;;10.20;3.07;;;1.50;99.90;;;;;;5001590;28;20030;-85
2021/03/18 03:53:06;;;;;;;8.00;2.95;;;1.50;99.90;;;;;;4993458;28;20022;-84
2021/03/18 03:55:54;;;;;;;9.10;3.00;;;1.50;99.90;;;;;;4980933;28;20038;-85
2021/03/18 03:58:51;;;;;;;7.30;2.63;;;1.40;99.90;;;;;;4990840;28;20030;-84
2021/03/18 04:01:35;;;;;;;5.67;3.30;;;1.40;99.90;;;;;;5012087;28;20120;-85
2021/03/18 04:04:18;;;;;;;8.27;2.93;;;1.40;99.90;;;;;;4990715;28;20471;-84
2021/03/18 04:06:45;;;;;;;8.77;3.30;;;1.50;99.90;;;;;;4993592;28;20030;-85
2021/03/18 04:09:14;;;;;;;7.27;2.87;;;1.50;99.90;;;;;;4975847;28;20550;-85
2021/03/18 04:11:41;;;;;;;8.33;2.60;;;1.50;99.90;;;;;;4975805;28;20030;-85
2021/03/18 04:14:10;;;;;;;5.60;2.63;;;1.50;99.90;;;;;;5005961;28;20041;-84
2021/03/18 04:16:38;;;;;;;8.20;3.00;;;1.40;99.90;;;;;;4993604;28;20029;-85
2021/03/18 04:19:05;;;;;;;6.30;3.07;;;1.40;99.90;;;;;;4980167;28;20029;-84
2021/03/18 04:21:36;;;;;;;8.43;3.50;;;1.50;99.90;;;;;;4982555;28;20469;-84
2021/03/18 04:24:04;;;;;;;7.20;3.10;;;1.40;99.90;;;;;;4980531;28;20088;-85
2021/03/18 04:26:31;;;;;;;8.27;2.93;;;1.40;99.90;;;;;;4994138;28;20059;-85
2021/03/18 04:28:59;;;;;;;7.17;3.03;;;1.40;99.90;;;;;;4991850;28;20039;-85
2021/03/18 04:31:26;;;;;;;6.90;2.70;;;1.40;99.90;;;;;;4981742;28;20031;-85
2021/03/18 04:33:52;;;;;;;8.50;3.00;;;1.40;99.90;;;;;;4987390;28;20122;-83
2021/03/18 04:36:17;;;;;;;8.47;2.97;;;1.40;99.90;;;;;;4989140;28;20031;-85
2021/03/18 04:38:43;;;;;;;6.90;2.73;;;1.40;99.90;;;;;;5009128;28;20040;-85
2021/03/18 04:41:09;;;;;;;6.67;2.93;;;1.40;99.90;;;;;;4979742;28;20029;-84
2021/03/18 04:43:38;;;;;;;7.27;2.67;;;1.30;99.90;;;;;;4986668;28;20512;-84
2021/03/18 04:46:06;;;;;;;6.27;2.63;;;1.30;99.90;;;;;;4986834;28;20097;-85
2021/03/18 04:48:33;;;;;;;9.30;2.97;;;1.30;99.90;;;;;;4980702;28;20109;-85
2021/03/18 04:50:59;;;;;;;6.80;2.67;;;1.30;99.90;;;;;;4979481;28;20033;-84
2021/03/18 04:53:24;;;;;;;8.67;4.20;;;1.30;99.90;;;;;;4997387;28;20052;-85
2021/03/18 04:55:50;;;;;;;6.73;3.00;;;1.20;99.90;;;;;;4984716;28;20113;-85
2021/03/18 04:58:20;;;;;;;7.13;3.00;;;1.30;99.90;;;;;;5002436;28;20034;-84
2021/03/18 05:00:47;;;;;;;8.53;3.10;;;1.30;99.90;;;;;;5013625;28;20038;-85
2021/03/18 05:03:13;;;;;;;8.00;2.73;;;1.20;99.90;;;;;;4996403;28;20026;-84
2021/03/18 05:05:40;;;;;;;6.93;2.83;;;1.30;99.90;;;;;;4973775;28;20062;-84
2021/03/18 05:08:07;;;;;;;8.23;2.83;;;1.30;99.90;;;;;;4996015;28;20027;-84
2021/03/18 05:10:35;;;;;;;12.03;2.77;;;1.30;99.90;;;;;;4993246;28;20498;-84
2021/03/18 05:13:04;;;;;;;9.50;3.00;;;1.30;99.90;;;;;;4996808;28;20505;-85
2021/03/18 05:15:31;;;;;;;8.63;2.93;;;1.30;99.90;;;;;;4973542;28;20491;-84
2021/03/18 05:17:57;;;;;;;8.40;3.03;;;1.30;99.90;;;;;;4976292;28;20027;-84
2021/03/18 05:20:24;;;;;;;7.53;3.00;;;1.30;99.90;;;;;;4985170;28;20453;-85
2021/03/18 05:22:51;;;;;;;7.27;3.20;;;1.30;99.90;;;;;;5004959;28;20026;-84
2021/03/18 05:25:20;;;;;;;6.63;2.97;;;1.30;99.90;;;;;;4986750;28;20078;-85
2021/03/18 05:27:46;;;;;;;6.17;2.90;;;1.30;99.90;;;;;;4984021;28;20487;-85
2021/03/18 05:30:14;;;;;;;9.57;3.00;;;1.30;99.90;;;;;;5002258;28;20041;-85
2021/03/18 05:32:43;;;;;;;8.83;3.33;;;1.30;99.90;;;;;;4989933;28;20041;-85
2021/03/18 05:35:11;;;;;;;6.90;2.97;;;1.30;99.90;;;;;;4993210;28;20034;-85
2021/03/18 05:37:37;;;;;;;6.90;3.20;;;1.30;99.90;;;;;;4980738;28;20027;-85
2021/03/18 05:40:05;;;;;;;7.67;3.47;;;1.30;99.90;;;;;;4990842;28;20050;-85
2021/03/18 05:42:33;;;;;;;6.23;3.43;;;1.30;99.90;;;;;;4974617;28;20035;-85
2021/03/18 05:44:59;;;;;;;5.97;3.00;;;1.30;99.90;;;;;;4992832;28;20033;-85
2021/03/18 05:47:24;;;;;;;6.53;3.23;;;1.40;99.90;;;;;;4991789;28;20026;-84
2021/03/18 05:49:51;;;;;;;6.83;3.10;;;1.40;99.90;;;;;;4966546;28;20115;-84
2021/03/18 05:52:18;;;;;;;10.10;3.90;;;1.40;99.90;;;;;;5004647;28;20452;-85
2021/03/18 05:54:47;;;;;;;8.10;3.10;;;1.40;99.90;;;;;;4980382;28;20030;-85
2021/03/18 05:57:15;;;;;;;12.30;3.80;;;1.40;99.90;;;;;;4977866;28;20034;-84
2021/03/18 05:59:44;;;;;;;6.57;3.20;;;1.40;99.90;;;;;;4991630;28;20422;-85
2021/03/18 06:02:10;;;;;;;7.97;3.60;;;1.40;99.90;;;;;;4985510;28;20455;-85
2021/03/18 06:04:36;;;;;;;9.10;3.80;;;1.30;99.90;;;;;;4975727;28;20030;-85
2021/03/18 06:07:03;;;;;;;7.27;3.27;;;1.30;99.90;;;;;;4973606;28;20443;-85
2021/03/18 06:09:29;;;;;;;8.83;3.33;;;1.40;99.90;;;;;;4979509;28;20507;-85
2021/03/18 06:11:55;;;;;;;10.93;3.57;;;1.40;99.90;;;;;;4994486;28;20041;-84
2021/03/18 06:14:21;;;;;;;8.20;3.83;;;1.40;99.90;;;;;;5001643;28;20030;-85
2021/03/18 06:16:48;;;;;;;6.83;3.80;;;1.40;99.90;;;;;;4983114;28;20033;-84
2021/03/18 06:19:15;;;;;;;8.50;3.23;;;1.40;99.90;;;;;;4980573;28;20035;-85
2021/03/18 06:21:51;;;;;;;7.73;3.23;;;1.40;99.90;;;;;;4989637;28;20038;-85
2021/03/18 06:24:18;;;;;;;7.83;3.43;;;1.40;99.90;;;;;;4975821;28;20114;-85
2021/03/18 06:26:44;;;;;;;9.97;3.57;;;1.40;99.90;;;;;;4974852;28;20045;-84
2021/03/18 06:29:36;;;;;;;10.13;3.17;;;1.50;99.90;;;;;;4981003;28;20141;-84
2021/03/18 06:32:13;;;;;;;6.90;3.23;;;1.50;99.90;;;;;;4977494;28;20153;-84
2021/03/18 06:34:54;;;;;;;8.13;3.50;;;1.60;99.90;;;;;;4979012;28;20065;-84
2021/03/18 06:37:49;;;;;;;9.00;3.67;;;1.60;99.90;;;;;;4991666;28;20061;-84
2021/03/18 06:40:20;;;;;;;10.87;3.70;;;1.70;99.90;;;;;;5011141;28;20026;-84
2021/03/18 06:42:58;;;;;;;10.13;3.47;;;1.70;99.90;;;;;;4993248;28;20031;-84
2021/03/18 06:45:29;;;;;;;7.90;3.60;;;1.70;99.90;;;;;;5006944;28;20110;-84
2021/03/18 06:48:05;;;;;;;7.40;3.60;;;1.70;99.90;;;;;;4993569;28;20048;-84
2021/03/18 06:50:34;;;;;;;9.80;3.40;;;1.70;99.90;;;;;;4979124;28;20070;-84
2021/03/18 06:53:00;;;;;;;7.30;3.40;;;1.80;99.90;;;;;;4975123;28;20116;-84
2021/03/18 06:55:27;;;;;;;9.57;3.37;;;1.70;99.90;;;;;;4990727;28;20120;-84
2021/03/18 06:58:19;;;;;;;8.97;4.00;;;1.80;99.90;;;;;;4974366;28;20022;-84
2021/03/18 07:00:52;;;;;;;10.15;4.13;;;1.80;99.90;;;;;;4971153;28;20061;-84
2021/03/18 07:03:31;;;;;;;;;;;2.00;99.90;;;;;;4962592;28;20040;-84
2021/03/18 07:06:06;;;;;;;9.97;3.63;;;2.10;99.90;;;;;;4990960;23;19926;-93
2021/03/18 07:08:37;;;;;;;8.20;4.00;;;2.30;99.90;;;;;;4992889;28;20404;-92
2021/03/18 07:11:20;;;;;;;10.37;3.77;;;2.30;99.90;;;;;;4993263;28;20025;-92
2021/03/18 07:13:47;;;;;;;10.87;4.00;;;2.20;99.90;;;;;;4992000;28;20196;-93
2021/03/18 07:16:14;;;;;;;10.13;3.87;;;2.10;99.90;;;;;;4988649;28;20121;-91
2021/03/18 07:18:41;;;;;;;11.53;4.27;;;2.10;99.90;;;;;;4994009;28;20084;-94
2021/03/18 07:21:13;;;;;;;10.93;4.70;;;2.10;99.90;;;;;;4991392;28;20030;-92
2021/03/18 07:23:44;;;;;;;9.32;4.65;;;2.00;99.90;;;;;;4993485;28;20075;-93
2021/03/18 07:26:19;;;;;;;9.30;4.43;;;2.00;99.90;;;;;;4989334;28;20026;-93
2021/03/18 07:28:53;;;;;;;8.37;4.50;;;2.00;99.90;;;;;;4996382;28;20037;-93
2021/03/18 07:31:21;;;;;;;9.17;4.23;;;2.10;99.90;;;;;;4992245;28;20030;-93
2021/03/18 07:33:50;;;;;;;10.07;4.50;;;2.30;99.90;;;;;;4993007;28;20461;-93
2021/03/18 07:36:17;;;;;;;8.67;4.00;;;2.10;99.90;;;;;;4992792;28;20466;-93
2021/03/18 07:38:44;;;;;;;9.60;4.03;;;2.10;99.90;;;;;;4997964;28;20018;-93
2021/03/18 07:41:16;;;;;;;11.17;4.43;;;2.00;99.90;;;;;;4996895;28;20068;-93
2021/03/18 07:43:45;;;;;;;9.60;4.47;;;2.00;99.90;;;;;;4997277;28;20048;-94
2021/03/18 07:46:21;;;;;;;9.57;4.63;;;1.90;99.90;;;;;;4996060;28;20026;-94
2021/03/18 07:49:02;;;;;;;10.07;4.63;;;1.90;99.90;;;;;;4999903;28;20034;-95
2021/03/18 07:51:29;;;;;;;10.00;4.70;;;1.90;99.90;;;;;;5013679;28;20064;-95
2021/03/18 07:53:58;;;;;;;11.13;4.47;;;2.00;99.90;;;;;;5014340;28;20053;-94
2021/03/18 07:56:25;;;;;;;10.70;4.93;;;2.30;99.90;;;;;;5014124;28;20046;-94
2021/03/18 07:58:55;;;;;;;9.80;4.50;;;2.40;99.90;;;;;;5010520;28;20010;-94
2021/03/18 08:01:30;;;;;;;7.77;4.50;;;2.60;99.90;;;;;;5008716;28;20014;-89
2021/03/18 08:03:57;;;;;;;9.83;4.80;;;2.70;99.90;;;;;;5005583;28;20030;-90
2021/03/18 08:06:48;;;;;;;9.03;4.47;;;2.70;99.90;;;;;;5005227;28;20034;-89
2021/03/18 08:09:37;;;;;;;11.40;5.07;;;2.90;99.90;;;;;;5013649;28;20025;-89
2021/03/18 08:12:03;;;;;;;8.87;4.60;;;3.00;99.90;;;;;;5014086;28;20042;-90
2021/03/18 08:14:29;;;;;;;10.10;5.73;;;3.10;99.90;;;;;;5017032;28;20120;-90
2021/03/18 08:16:56;;;;;;;9.37;5.17;;;3.20;99.90;;;;;;5026570;28;20061;-87
2021/03/18 08:19:22;;;;;;;9.57;4.90;;;3.40;99.90;;;;;;5026275;28;20030;-89
2021/03/18 08:21:53;;;;;;;14.87;6.30;;;3.60;99.90;;;;;;4993744;28;20101;-90
2021/03/18 08:24:21;;;;;;;11.90;6.13;;;3.90;99.90;;;;;;5009475;28;20113;-92
2021/03/18 08:26:50;;;;;;;14.93;6.43;;;4.10;99.90;;;;;;4991976;28;20030;-91
2021/03/18 08:29:22;;;;;;;10.70;5.47;;;4.10;99.90;;;;;;4988330;28;20175;-91
2021/03/18 08:31:54;;;;;;;11.38;5.30;;;4.40;99.90;;;;;;4990521;28;20052;-92
2021/03/18 08:34:40;;;;;;;12.48;6.18;;;4.40;99.90;;;;;;4994408;28;20036;-89
2021/03/18 08:37:06;;;;;;;9.70;5.47;;;4.30;99.90;;;;;;4995361;28;20037;-92
2021/03/18 08:39:48;;;;;;;14.93;6.23;;;4.20;99.90;;;;;;4986870;28;20536;-91
2021/03/18 08:42:30;;;;;;;13.30;5.85;;;4.10;99.90;;;;;;4987871;28;20037;-91
2021/03/18 08:45:11;;;;;;;10.33;5.37;;;4.10;99.90;;;;;;4989723;28;20088;-91
2021/03/18 08:47:38;;;;;;;9.57;5.33;;;4.00;99.90;;;;;;5011003;28;20073;-90
2021/03/18 08:50:13;;;;;;;11.70;5.67;;;3.90;99.90;;;;;;4993248;28;20269;-91
2021/03/18 08:52:42;;;;;;;10.83;5.40;;;3.90;99.90;;;;;;5005466;28;20093;-91
2021/03/18 08:55:11;;;;;;;11.83;5.43;;;3.70;99.90;;;;;;4985101;28;20028;-90
2021/03/18 08:57:38;;;;;;;9.83;5.67;;;3.70;99.90;;;;;;4989196;28;20129;-91
2021/03/18 09:00:13;;;;;;;10.90;6.03;;;3.70;99.90;;;;;;5004988;28;20032;-91
2021/03/18 09:02:39;;;;;;;10.87;5.50;;;3.80;99.90;;;;;;4981953;28;20025;-92
2021/03/18 09:05:15;;;;;;;14.70;6.00;;;3.90;99.90;;;;;;4982380;28;20038;-91
2021/03/18 09:07:42;;;;;;;10.00;5.07;;;3.90;99.90;;;;;;4991235;28;20335;-92
2021/03/18 09:10:10;;;;;;;10.20;5.07;;;4.10;99.90;;;;;;4984315;28;20513;-91
2021/03/18 09:12:47;;;;;;;9.70;4.67;;;4.00;99.90;;;;;;5005171;28;20037;-89
2021/03/18 09:15:24;;;;;;;7.57;4.30;;;4.10;99.90;;;;;;5002298;28;20027;-90
2021/03/18 09:17:53;;;;;;;8.57;3.80;;;4.20;99.90;;;;;;4986537;28;20018;-89
2021/03/18 09:20:23;;;;;;;7.73;4.50;;;4.20;99.90;;;;;;4981685;28;20505;-92
2021/03/18 09:22:49;;;;;;;9.80;4.50;;;4.10;99.90;;;;;;5002718;28;20077;-92
2021/03/18 09:25:15;;;;;;;9.40;5.17;;;4.40;99.90;;;;;;4990231;28;20026;-91
2021/03/18 09:27:45;;;;;;;11.47;5.47;;;4.60;99.90;;;;;;4986067;28;20038;-92
2021/03/18 09:30:20;;;;;;;8.50;4.60;;;4.60;99.90;;;;;;5006654;28;20030;-89
2021/03/18 09:32:47;;;;;;;8.47;4.10;;;4.60;99.90;;;;;;5007982;28;20049;-90
2021/03/18 09:35:14;;;;;;;9.30;4.17;;;4.40;99.90;;;;;;5007282;28;20018;-92
2021/03/18 09:37:40;;;;;;;9.00;4.40;;;4.40;99.90;;;;;;4983401;28;20522;-92
2021/03/18 09:40:09;;;;;;;9.97;4.50;;;4.40;99.90;;;;;;5005236;28;20026;-89
2021/03/18 09:42:35;;;;;;;8.10;4.93;;;4.40;99.90;;;;;;5007792;28;20545;-91
2021/03/18 09:45:02;;;;;;;10.43;4.97;;;4.30;99.90;;;;;;5000877;28;20036;-91
2021/03/18 09:47:28;;;;;;;8.43;5.00;;;4.30;99.90;;;;;;4992285;28;20117;-92
2021/03/18 09:49:54;;;;;;;10.60;4.90;;;4.30;99.90;;;;;;4982823;28;20456;-91
2021/03/18 09:52:24;;;;;;;12.67;5.60;;;4.30;99.90;;;;;;4999299;28;20029;-90
2021/03/18 09:54:53;;;;;;;10.47;5.47;;;4.30;99.90;;;;;;5035359;28;20034;-88
2021/03/18 09:57:19;;;;;;;12.60;6.30;;;4.40;99.90;;;;;;5015410;28;20105;-89
2021/03/18 09:59:52;;;;;;;13.50;5.67;;;4.50;99.90;;;;;;5011664;28;20041;-90
2021/03/18 10:02:24;;;;;;;8.70;4.90;;;4.60;99.90;;;;;;5017072;28;20018;-91
2021/03/18 10:04:50;;;;;;;9.88;5.28;;;4.50;99.90;;;;;;4997118;28;20164;-91
2021/03/18 10:07:16;;;;;;;8.60;4.00;;;4.60;99.90;;;;;;4987279;28;20037;-91
2021/03/18 10:09:45;;;;;;;10.03;3.57;;;4.60;99.90;;;;;;4977262;28;20089;-91
2021/03/18 10:12:22;;;;;;;9.27;4.00;;;4.50;99.90;;;;;;4998356;28;20025;-88
2021/03/18 10:14:59;;;;;;;7.97;3.20;;;4.50;99.90;;;;;;4980212;28;20122;-91
2021/03/18 10:17:45;;;;;;;6.47;3.27;;;4.50;99.90;;;;;;4976959;28;20034;-90
2021/03/18 10:20:16;;;;;;;8.67;3.70;;;4.50;99.90;;;;;;4983901;28;20022;-91
2021/03/18 10:23:00;;;;;;;9.73;3.58;;;4.50;99.90;;;;;;4979726;28;20023;-92
2021/03/18 10:25:30;;;;;;;7.73;3.50;;;4.60;99.90;;;;;;4985990;28;20038;-92
2021/03/18 10:28:04;;;;;;;8.70;3.30;;;4.80;99.90;;;;;;4985321;28;20026;-92
2021/03/18 10:30:33;;;;;;;7.30;3.50;;;4.80;99.90;;;;;;4994229;28;20049;-91
2021/03/18 10:33:21;;;;;;;7.63;3.53;;;4.90;99.90;;;;;;5000951;28;20030;-90
2021/03/18 10:35:53;;;;;;;7.50;3.60;;;4.90;99.90;;;;;;4995574;28;20046;-91
2021/03/18 10:38:31;;;;;;;8.65;3.95;;;5.00;99.90;;;;;;5001239;28;20058;-91
2021/03/18 10:41:08;;;;;;;7.63;3.53;;;5.10;99.90;;;;;;4996433;28;20026;-90
2021/03/18 10:43:47;;;;;;;6.87;3.83;;;5.20;99.90;;;;;;4990713;28;20030;-91
2021/03/18 10:46:16;;;;;;;8.97;3.90;;;5.30;99.90;;;;;;4996372;28;20032;-93
2021/03/18 10:48:49;;;;;;;9.93;4.10;;;5.30;99.90;;;;;;5006989;28;20054;-92
2021/03/18 10:51:18;;;;;;;8.88;3.70;;;5.30;99.90;;;;;;4998717;28;20121;-92
2021/03/18 10:53:46;;;;;;;9.83;4.33;;;5.30;99.90;;;;;;4995995;28;20072;-92
2021/03/18 10:56:26;;;;;;;5.93;3.50;;;5.20;99.90;;;;;;5010769;28;20080;-91
2021/03/18 10:59:16;;;;;;;9.47;3.57;;;5.20;99.90;;;;;;4999947;28;20032;-94
2021/03/18 11:01:42;;;;;;;6.37;3.63;;;5.10;99.90;;;;;;4998446;28;20483;-94
2021/03/18 11:04:10;;;;;;;7.03;3.77;;;5.10;99.90;;;;;;4999066;28;20053;-95
2021/03/18 11:06:48;;;;;;;7.80;4.10;;;4.90;99.90;;;;;;4999378;28;20148;-94
2021/03/18 11:09:15;;;;;;;9.00;4.17;;;4.70;99.90;;;;;;4999935;28;20042;-94
2021/03/18 11:12:00;;;;;;;8.37;3.77;;;4.60;99.90;;;;;;4998745;28;20129;-94
2021/03/18 11:14:31;;;;;;;6.87;3.67;;;4.60;99.90;;;;;;4994246;28;20037;-93
2021/03/18 11:17:08;;;;;;;9.60;3.80;;;4.50;99.90;;;;;;4991371;28;20501;-94
2021/03/18 11:19:34;;;;;;;8.87;3.73;;;4.50;99.90;;;;;;4991168;28;20498;-93
2021/03/18 11:22:10;;;;;;;9.23;3.90;;;4.50;99.90;;;;;;4990832;28;20085;-94
2021/03/18 11:24:35;;;;;;;7.70;3.57;;;4.40;99.90;;;;;;5007468;28;20025;-91
2021/03/18 11:27:03;;;;;;;7.60;3.77;;;4.60;99.90;;;;;;4979597;28;20520;-90
2021/03/18 11:29:35;;;;;;;7.07;3.40;;;4.60;99.90;;;;;;5005446;28;20669;-90
2021/03/18 11:32:04;;;;;;;8.82;3.80;;;4.80;99.90;;;;;;5007924;28;20029;-92
2021/03/18 11:34:35;;;;;;;10.90;4.37;;;4.90;99.90;;;;;;4998847;28;20034;-92
2021/03/18 11:37:07;;;;;;;8.07;3.60;;;5.20;99.90;;;;;;4983283;28;20019;-93
2021/03/18 11:39:33;;;;;;;8.52;3.38;;;5.20;99.90;;;;;;4982742;28;20045;-93
2021/03/18 11:42:00;;;;;;;9.37;4.97;;;5.30;99.90;;;;;;4983981;28;20037;-89
2021/03/18 11:44:29;;;;;;;10.27;4.73;;;5.20;99.90;;;;;;4987186;28;20088;-90
2021/03/18 11:47:19;;;;;;;7.47;3.47;;;5.30;99.90;;;;;;4991411;28;20453;-92
2021/03/18 11:49:45;;;;;;;7.57;3.77;;;5.20;99.90;;;;;;4996458;28;20034;-92
2021/03/18 11:52:11;;;;;;;9.97;3.77;;;5.60;99.90;;;;;;4985475;28;20079;-92
2021/03/18 11:54:38;;;;;;;8.47;3.33;;;5.70;99.00;;;;;;4992269;28;20084;-92
2021/03/18 11:57:05;;;;;;;8.93;3.60;;;5.90;99.90;;;;;;5004890;28;20639;-92
2021/03/18 11:59:33;;;;;;;7.67;3.50;;;5.90;99.90;;;;;;4997097;28;20096;-93
2021/03/18 12:01:59;;;;;;;8.17;3.43;;;5.80;97.70;;;;;;4993597;28;20018;-92
2021/03/18 12:04:26;;;;;;;9.17;3.40;;;5.80;99.90;;;;;;4998235;28;20160;-94
2021/03/18 12:06:51;;;;;;;6.00;3.23;;;5.90;96.50;;;;;;4990673;28;20027;-92
2021/03/18 12:09:18;;;;;;;6.50;3.20;;;5.90;95.00;;;;;;5000826;28;20030;-94
2021/03/18 12:11:44;;;;;;;6.83;2.93;;;5.90;94.60;;;;;;4998759;28;20026;-93
2021/03/18 12:14:10;;;;;;;7.53;3.37;;;5.90;93.10;;;;;;4999927;28;20510;-95
2021/03/18 12:16:36;;;;;;;8.20;3.63;;;6.00;91.70;;;;;;5008601;28;20153;-94
2021/03/18 12:19:02;;;;;;;6.40;3.37;;;6.10;92.50;;;;;;4994401;28;20045;-93
2021/03/18 12:21:27;;;;;;;6.83;3.23;;;6.20;90.70;;;;;;4998427;28;20748;-92
2021/03/18 12:23:53;;;;;;;6.23;3.10;;;6.40;92.20;;;;;;4991394;28;20042;-94
2021/03/18 12:26:20;;;;;;;6.13;3.27;;;6.70;91.10;;;;;;4993665;28;20030;-93
2021/03/18 12:28:50;;;;;;;7.83;3.70;;;7.20;90.10;;;;;;4985354;28;20034;-93
2021/03/18 12:31:17;;;;;;;5.37;2.57;;;7.50;94.70;;;;;;4997448;28;20034;-94
2021/03/18 12:33:45;;;;;;;7.23;2.80;;;7.60;90.80;;;;;;4991576;28;20201;-93
2021/03/18 12:36:12;;;;;;;5.30;2.40;;;7.60;90.40;;;;;;4993874;28;20540;-94
2021/03/18 12:38:43;;;;;;;5.47;2.50;;;7.20;91.00;;;;;;4989995;28;20034;-94
2021/03/18 12:41:10;;;;;;;6.13;2.80;;;7.00;81.60;;;;;;5004541;28;20036;-94
2021/03/18 12:43:36;;;;;;;8.03;2.50;;;7.00;87.00;;;;;;4996434;28;20037;-94
2021/03/18 12:46:05;;;;;;;6.70;2.60;;;7.00;91.60;;;;;;4992601;28;20467;-94
2021/03/18 12:48:37;;;;;;;8.30;2.80;;;6.90;90.30;;;;;;5001900;28;20036;-95
2021/03/18 12:56:12;;;;;;;8.20;3.23;;;5.90;99.90;;;;;;5005549;28;20045;-89
2021/03/18 12:58:38;;;;;;;7.07;3.60;;;5.70;99.90;;;;;;4991485;28;20029;-90
2021/03/18 13:01:04;;;;;;;8.53;3.90;;;5.50;99.90;;;;;;5012772;28;20087;-91
2021/03/18 13:03:29;;;;;;;6.70;3.83;;;5.50;99.90;;;;;;5004713;28;20552;-93
2021/03/18 13:05:55;;;;;;;10.27;3.80;;;5.40;99.90;;;;;;4985639;28;20029;-92
2021/03/18 13:08:21;;;;;;;7.50;3.87;;;5.40;99.90;;;;;;4993511;28;20034;-90
2021/03/18 13:10:48;;;;;;;8.03;4.20;;;5.30;99.90;;;;;;4996514;28;20288;-93
2021/03/18 13:13:13;;;;;;;9.73;4.30;;;5.20;99.90;;;;;;5005257;28;20018;-93
2021/03/18 13:15:39;;;;;;;8.57;3.93;;;5.20;99.90;;;;;;5003514;28;20115;-92